sensor_id;sensor_type;location;lat;lon;timestamp;pressure;altitude;pressure_sealevel;temperature;humidity
41573;BME280;27286;47.870;19.006;2023-04-09T00:02:14;99896.88;;;2.01;100.00
41573;BME280;27286;47.870;19.006;2023-04-09T00:04:40;99903.72;;;2.01;100.00
41573;BME280;27286;47.870;19.006;2023-04-09T00:07:05;99904.56;;;2.00;100.00
41573;BME280;27286;47.870;19.006;2023-04-09T00:09:30;99907.13;;;1.98;100.00
41573;BME280;27286;47.870;19.006;2023-04-09T00:11:56;99896.88;;;1.94;100.00
41573;BME280;27286;47.870;19.006;2023-04-09T00:14:22;99903.72;;;1.92;100.00
41573;BME280;27286;47.870;19.006;2023-04-09T00:16:48;99900.31;;;1.87;100.00
41573;BME280;27286;47.870;19.006;2023-04-09T00:19:13;99903.72;;;1.87;100.00
41573;BME280;27286;47.870;19.006;2023-04-09T00:21:39;99907.16;;;1.89;100.00
41573;BME280;27286;47.870;19.006;2023-04-09T00:24:04;99906.28;;;1.92;100.00
41573;BME280;27286;47.870;19.006;2023-04-09T00:26:30;99905.44;;;1.93;100.00
41573;BME280;27286;47.870;19.006;2023-04-09T00:28:55;99902.88;;;1.97;100.00
41573;BME280;27286;47.870;19.006;2023-04-09T00:31:21;99901.16;;;1.98;100.00
41573;BME280;27286;47.870;19.006;2023-04-09T00:33:46;99907.13;;;1.98;100.00
41573;BME280;27286;47.870;19.006;2023-04-09T00:36:12;99907.13;;;1.98;100.00
41573;BME280;27286;47.870;19.006;2023-04-09T00:38:37;99909.72;;;2.00;100.00
41573;BME280;27286;47.870;19.006;2023-04-09T00:41:02;99905.47;;;2.02;100.00
41573;BME280;27286;47.870;19.006;2023-04-09T00:43:28;99907.16;;;2.04;100.00
41573;BME280;27286;47.870;19.006;2023-04-09T00:45:53;99904.59;;;2.07;100.00
41573;BME280;27286;47.870;19.006;2023-04-09T00:48:19;99902.88;;;2.09;100.00
41573;BME280;27286;47.870;19.006;2023-04-09T00:50:45;99905.44;;;2.13;100.00
41573;BME280;27286;47.870;19.006;2023-04-09T00:53:11;99910.56;;;2.14;100.00
41573;BME280;27286;47.870;19.006;2023-04-09T00:55:39;99908.88;;;2.16;100.00
41573;BME280;27286;47.870;19.006;2023-04-09T00:58:05;99897.72;;;2.14;100.00
41573;BME280;27286;47.870;19.006;2023-04-09T01:00:30;99902.88;;;2.14;100.00
41573;BME280;27286;47.870;19.006;2023-04-09T01:02:56;99898.59;;;2.11;100.00
41573;BME280;27286;47.870;19.006;2023-04-09T01:05:40;99903.72;;;2.10;100.00
41573;BME280;27286;47.870;19.006;2023-04-09T01:08:37;99896.03;;;2.10;100.00
41573;BME280;27286;47.870;19.006;2023-04-09T01:11:28;99898.59;;;2.11;100.00
41573;BME280;27286;47.870;19.006;2023-04-09T01:13:58;99898.59;;;2.15;100.00
41573;BME280;27286;47.870;19.006;2023-04-09T01:16:28;99893.44;;;2.16;100.00
41573;BME280;27286;47.870;19.006;2023-04-09T01:18:57;99892.63;;;2.19;100.00
41573;BME280;27286;47.870;19.006;2023-04-09T01:21:31;99892.59;;;2.17;100.00
41573;BME280;27286;47.870;19.006;2023-04-09T01:24:25;99896.03;;;2.16;100.00
41573;BME280;27286;47.870;19.006;2023-04-09T01:27:06;99892.59;;;2.11;100.00
41573;BME280;27286;47.870;19.006;2023-04-09T01:29:34;99892.59;;;2.11;100.00
41573;BME280;27286;47.870;19.006;2023-04-09T01:32:04;99900.31;;;2.13;100.00
41573;BME280;27286;47.870;19.006;2023-04-09T01:34:32;99892.59;;;2.14;100.00
41573;BME280;27286;47.870;19.006;2023-04-09T01:36:59;99883.19;;;2.16;100.00
41573;BME280;27286;47.870;19.006;2023-04-09T01:39:26;99893.47;;;2.21;100.00
41573;BME280;27286;47.870;19.006;2023-04-09T01:41:52;99894.31;;;2.24;100.00
41573;BME280;27286;47.870;19.006;2023-04-09T01:44:20;99892.59;;;2.25;100.00
41573;BME280;27286;47.870;19.006;2023-04-09T01:46:48;99890.91;;;2.25;100.00
41573;BME280;27286;47.870;19.006;2023-04-09T01:49:15;99896.03;;;2.25;100.00
41573;BME280;27286;47.870;19.006;2023-04-09T01:51:42;99897.75;;;2.28;100.00
41573;BME280;27286;47.870;19.006;2023-04-09T01:54:07;99892.59;;;2.28;100.00
41573;BME280;27286;47.870;19.006;2023-04-09T01:56:59;99894.31;;;2.30;100.00
41573;BME280;27286;47.870;19.006;2023-04-09T01:59:25;99896.03;;;2.31;100.00
41573;BME280;27286;47.870;19.006;2023-04-09T02:02:05;99895.16;;;2.32;100.00
41573;BME280;27286;47.870;19.006;2023-04-09T02:04:35;99896.00;;;2.33;100.00
41573;BME280;27286;47.870;19.006;2023-04-09T02:07:09;99896.91;;;2.36;100.00
41573;BME280;27286;47.870;19.006;2023-04-09T02:09:39;99895.19;;;2.38;100.00
41573;BME280;27286;47.870;19.006;2023-04-09T02:12:08;99890.03;;;2.38;100.00
41573;BME280;27286;47.870;19.006;2023-04-09T02:14:36;99893.47;;;2.37;100.00
41573;BME280;27286;47.870;19.006;2023-04-09T02:17:03;99893.47;;;2.37;100.00
41573;BME280;27286;47.870;19.006;2023-04-09T02:19:42;99890.88;;;2.34;100.00
41573;BME280;27286;47.870;19.006;2023-04-09T02:22:08;99901.19;;;2.36;100.00
41573;BME280;27286;47.870;19.006;2023-04-09T02:24:34;99897.75;;;2.37;100.00
41573;BME280;27286;47.870;19.006;2023-04-09T02:27:00;99891.72;;;2.33;100.00
41573;BME280;27286;47.870;19.006;2023-04-09T02:29:26;99881.47;;;2.27;100.00
41573;BME280;27286;47.870;19.006;2023-04-09T02:31:51;99880.63;;;2.19;100.00
41573;BME280;27286;47.870;19.006;2023-04-09T02:34:18;99880.59;;;2.16;100.00
41573;BME280;27286;47.870;19.006;2023-04-09T02:36:43;99884.91;;;2.13;100.00
41573;BME280;27286;47.870;19.006;2023-04-09T02:39:09;99884.88;;;2.16;100.00
41573;BME280;27286;47.870;19.006;2023-04-09T02:41:34;99878.03;;;2.18;100.00
41573;BME280;27286;47.870;19.006;2023-04-09T02:43:59;99887.44;;;2.17;100.00
41573;BME280;27286;47.870;19.006;2023-04-09T02:46:25;99893.44;;;2.18;100.00
41573;BME280;27286;47.870;19.006;2023-04-09T02:48:50;99898.59;;;2.16;100.00
41573;BME280;27286;47.870;19.006;2023-04-09T02:51:16;99886.59;;;2.18;100.00
41573;BME280;27286;47.870;19.006;2023-04-09T02:53:41;99890.03;;;2.22;100.00
41573;BME280;27286;47.870;19.006;2023-04-09T02:56:07;99890.03;;;2.26;100.00
41573;BME280;27286;47.870;19.006;2023-04-09T02:58:32;99896.03;;;2.31;100.00
41573;BME280;27286;47.870;19.006;2023-04-09T03:00:57;99893.44;;;2.34;100.00
41573;BME280;27286;47.870;19.006;2023-04-09T03:03:23;99897.75;;;2.38;100.00
41573;BME280;27286;47.870;19.006;2023-04-09T03:05:48;99892.59;;;2.41;100.00
41573;BME280;27286;47.870;19.006;2023-04-09T03:08:14;99891.75;;;2.42;100.00
41573;BME280;27286;47.870;19.006;2023-04-09T03:10:40;99895.16;;;2.48;100.00
41573;BME280;27286;47.870;19.006;2023-04-09T03:13:05;99888.28;;;2.50;100.00
41573;BME280;27286;47.870;19.006;2023-04-09T03:15:30;99896.03;;;2.53;100.00
41573;BME280;27286;47.870;19.006;2023-04-09T03:17:56;99893.44;;;2.54;100.00
41573;BME280;27286;47.870;19.006;2023-04-09T03:20:21;99892.59;;;2.54;100.00
41573;BME280;27286;47.870;19.006;2023-04-09T03:22:47;99894.28;;;2.52;100.00
41573;BME280;27286;47.870;19.006;2023-04-09T03:25:12;99898.59;;;2.53;100.00
41573;BME280;27286;47.870;19.006;2023-04-09T03:27:37;99889.13;;;2.52;100.00
41573;BME280;27286;47.870;19.006;2023-04-09T03:30:03;99896.03;;;2.53;100.00
41573;BME280;27286;47.870;19.006;2023-04-09T03:32:29;99893.44;;;2.51;100.00
41573;BME280;27286;47.870;19.006;2023-04-09T03:34:54;99892.56;;;2.51;100.00
41573;BME280;27286;47.870;19.006;2023-04-09T03:37:20;99892.59;;;2.52;100.00
41573;BME280;27286;47.870;19.006;2023-04-09T03:39:45;99887.44;;;2.54;100.00
41573;BME280;27286;47.870;19.006;2023-04-09T03:42:10;99895.16;;;2.55;100.00
41573;BME280;27286;47.870;19.006;2023-04-09T03:44:36;99898.59;;;2.56;100.00
41573;BME280;27286;47.870;19.006;2023-04-09T03:47:01;99893.44;;;2.59;100.00
41573;BME280;27286;47.870;19.006;2023-04-09T03:49:27;99887.44;;;2.60;100.00
41573;BME280;27286;47.870;19.006;2023-04-09T03:51:53;99886.56;;;2.62;100.00
41573;BME280;27286;47.870;19.006;2023-04-09T03:54:18;99888.25;;;2.65;100.00
41573;BME280;27286;47.870;19.006;2023-04-09T03:56:43;99892.53;;;2.66;100.00
41573;BME280;27286;47.870;19.006;2023-04-09T03:59:09;99886.56;;;2.65;100.00
41573;BME280;27286;47.870;19.006;2023-04-09T04:01:34;99896.84;;;2.70;100.00
41573;BME280;27286;47.870;19.006;2023-04-09T04:04:00;99896.84;;;2.70;100.00
41573;BME280;27286;47.870;19.006;2023-04-09T04:06:25;99896.84;;;2.73;100.00
41573;BME280;27286;47.870;19.006;2023-04-09T04:08:52;99899.41;;;2.70;100.00
41573;BME280;27286;47.870;19.006;2023-04-09T04:11:17;99895.13;;;2.66;100.00
41573;BME280;27286;47.870;19.006;2023-04-09T04:13:43;99901.97;;;2.64;100.00
41573;BME280;27286;47.870;19.006;2023-04-09T04:16:08;99902.00;;;2.58;100.00
41573;BME280;27286;47.870;19.006;2023-04-09T04:18:35;99903.72;;;2.56;100.00
41573;BME280;27286;47.870;19.006;2023-04-09T04:21:00;99897.72;;;2.55;100.00
41573;BME280;27286;47.870;19.006;2023-04-09T04:23:26;99908.00;;;2.60;100.00
41573;BME280;27286;47.870;19.006;2023-04-09T04:25:51;99907.13;;;2.62;100.00
41573;BME280;27286;47.870;19.006;2023-04-09T04:28:21;99911.41;;;2.65;100.00
41573;BME280;27286;47.870;19.006;2023-04-09T04:30:46;99907.13;;;2.65;100.00
41573;BME280;27286;47.870;19.006;2023-04-09T04:33:11;99907.13;;;2.65;100.00
41573;BME280;27286;47.870;19.006;2023-04-09T04:35:37;99910.56;;;2.69;100.00
41573;BME280;27286;47.870;19.006;2023-04-09T04:38:02;99906.28;;;2.71;100.00
41573;BME280;27286;47.870;19.006;2023-04-09T04:40:28;99920.81;;;2.74;100.00
41573;BME280;27286;47.870;19.006;2023-04-09T04:42:53;99916.56;;;2.71;100.00
41573;BME280;27286;47.870;19.006;2023-04-09T04:45:18;99916.53;;;2.66;100.00
41573;BME280;27286;47.870;19.006;2023-04-09T04:47:44;99914.81;;;2.65;100.00
41573;BME280;27286;47.870;19.006;2023-04-09T04:50:09;99918.25;;;2.66;100.00
41573;BME280;27286;47.870;19.006;2023-04-09T04:52:35;99919.97;;;2.67;100.00
41573;BME280;27286;47.870;19.006;2023-04-09T04:55:01;99923.41;;;2.69;100.00
41573;BME280;27286;47.870;19.006;2023-04-09T04:57:26;99919.13;;;2.69;100.00
41573;BME280;27286;47.870;19.006;2023-04-09T04:59:52;99921.69;;;2.76;100.00
41573;BME280;27286;47.870;19.006;2023-04-09T05:02:17;99916.53;;;2.77;100.00
41573;BME280;27286;47.870;19.006;2023-04-09T05:04:43;99919.09;;;2.82;100.00
41573;BME280;27286;47.870;19.006;2023-04-09T05:07:08;99912.22;;;2.88;100.00
41573;BME280;27286;47.870;19.006;2023-04-09T05:09:34;99913.09;;;2.87;100.00
41573;BME280;27286;47.870;19.006;2023-04-09T05:11:59;99920.75;;;2.99;100.00
41573;BME280;27286;47.870;19.006;2023-04-09T05:14:25;99926.75;;;3.08;100.00
41573;BME280;27286;47.870;19.006;2023-04-09T05:16:50;99921.56;;;3.15;100.00
41573;BME280;27286;47.870;19.006;2023-04-09T05:19:16;99926.69;;;3.23;100.00
41573;BME280;27286;47.870;19.006;2023-04-09T05:21:41;99924.94;;;3.28;100.00
41573;BME280;27286;47.870;19.006;2023-04-09T05:24:07;99933.50;;;3.31;100.00
41573;BME280;27286;47.870;19.006;2023-04-09T05:26:32;99935.25;;;3.26;100.00
41573;BME280;27286;47.870;19.006;2023-04-09T05:28:57;99929.28;;;3.20;100.00
41573;BME280;27286;47.870;19.006;2023-04-09T05:31:23;99938.69;;;3.25;100.00
41573;BME280;27286;47.870;19.006;2023-04-09T05:33:48;99942.97;;;3.28;100.00
41573;BME280;27286;47.870;19.006;2023-04-09T05:36:15;99942.94;;;3.32;100.00
41573;BME280;27286;47.870;19.006;2023-04-09T05:38:42;99948.09;;;3.37;100.00
41573;BME280;27286;47.870;19.006;2023-04-09T05:41:08;99949.78;;;3.43;100.00
41573;BME280;27286;47.870;19.006;2023-04-09T05:43:33;99952.31;;;3.47;100.00
41573;BME280;27286;47.870;19.006;2023-04-09T05:45:58;99940.31;;;3.46;100.00
41573;BME280;27286;47.870;19.006;2023-04-09T05:48:24;99954.84;;;3.58;100.00
41573;BME280;27286;47.870;19.006;2023-04-09T05:50:50;99955.69;;;3.61;100.00
41573;BME280;27286;47.870;19.006;2023-04-09T05:53:19;99953.94;;;3.67;100.00
41573;BME280;27286;47.870;19.006;2023-04-09T05:55:45;99948.78;;;3.71;100.00
41573;BME280;27286;47.870;19.006;2023-04-09T05:58:11;99954.72;;;3.81;100.00
41573;BME280;27286;47.870;19.006;2023-04-09T06:00:36;99950.34;;;3.95;100.00
41573;BME280;27286;47.870;19.006;2023-04-09T06:03:03;99949.41;;;4.10;100.00
41573;BME280;27286;47.870;19.006;2023-04-09T06:05:28;99947.63;;;4.21;100.00
41573;BME280;27286;47.870;19.006;2023-04-09T06:07:53;99956.06;;;4.35;100.00
41573;BME280;27286;47.870;19.006;2023-04-09T06:10:19;99951.72;;;4.45;100.00
41573;BME280;27286;47.870;19.006;2023-04-09T06:12:44;99959.38;;;4.56;100.00
41573;BME280;27286;47.870;19.006;2023-04-09T06:15:10;99957.50;;;4.70;100.00
41573;BME280;27286;47.870;19.006;2023-04-09T06:17:35;99959.94;;;4.83;100.00
41573;BME280;27286;47.870;19.006;2023-04-09T06:20:01;99962.38;;;4.99;100.00
41573;BME280;27286;47.870;19.006;2023-04-09T06:22:26;99961.41;;;5.12;100.00
41573;BME280;27286;47.870;19.006;2023-04-09T06:24:52;99950.97;;;5.21;100.00
41573;BME280;27286;47.870;19.006;2023-04-09T06:27:17;99959.38;;;5.40;100.00
41573;BME280;27286;47.870;19.006;2023-04-09T06:29:43;99960.03;;;5.54;100.00
41573;BME280;27286;47.870;19.006;2023-04-09T06:32:08;99957.28;;;5.68;99.62
41573;BME280;27286;47.870;19.006;2023-04-09T06:34:34;99956.25;;;5.80;97.82
41573;BME280;27286;47.870;19.006;2023-04-09T06:36:59;99962.19;;;5.91;95.45
41573;BME280;27286;47.870;19.006;2023-04-09T06:39:25;99965.44;;;6.02;94.33
41573;BME280;27286;47.870;19.006;2023-04-09T06:41:52;99967.03;;;6.12;92.41
41573;BME280;27286;47.870;19.006;2023-04-09T06:44:17;99964.38;;;6.17;91.70
41573;BME280;27286;47.870;19.006;2023-04-09T06:46:44;99968.63;;;6.21;90.05
41573;BME280;27286;47.870;19.006;2023-04-09T06:49:10;99972.75;;;6.32;89.99
41573;BME280;27286;47.870;19.006;2023-04-09T06:51:35;99974.38;;;6.40;88.67
41573;BME280;27286;47.870;19.006;2023-04-09T06:54:01;99969.94;;;6.48;88.80
41573;BME280;27286;47.870;19.006;2023-04-09T06:56:26;99974.09;;;6.58;88.40
41573;BME280;27286;47.870;19.006;2023-04-09T06:58:52;99970.69;;;6.54;87.04
41573;BME280;27286;47.870;19.006;2023-04-09T07:01:17;99970.69;;;6.54;86.29
41573;BME280;27286;47.870;19.006;2023-04-09T07:03:43;99980.88;;;6.65;87.21
41573;BME280;27286;47.870;19.006;2023-04-09T07:06:08;99974.72;;;6.71;87.36
41573;BME280;27286;47.870;19.006;2023-04-09T07:08:34;99966.19;;;6.66;87.25
41573;BME280;27286;47.870;19.006;2023-04-09T07:10:59;99974.63;;;6.77;89.27
41573;BME280;27286;47.870;19.006;2023-04-09T07:13:25;99978.75;;;6.87;89.47
41573;BME280;27286;47.870;19.006;2023-04-09T07:15:51;99980.53;;;6.85;87.24
41573;BME280;27286;47.870;19.006;2023-04-09T07:18:16;99990.03;;;6.83;86.88
41573;BME280;27286;47.870;19.006;2023-04-09T07:20:41;99996.00;;;6.86;85.84
41573;BME280;27286;47.870;19.006;2023-04-09T07:23:07;99989.97;;;6.87;86.65
41573;BME280;27286;47.870;19.006;2023-04-09T07:25:32;99998.53;;;6.91;86.68
41573;BME280;27286;47.870;19.006;2023-04-09T07:27:58;99994.25;;;6.90;85.94
41573;BME280;27286;47.870;19.006;2023-04-09T07:30:23;100006.63;;;6.71;84.81
41573;BME280;27286;47.870;19.006;2023-04-09T07:32:49;100011.81;;;6.70;86.14
41573;BME280;27286;47.870;19.006;2023-04-09T07:35:15;100008.25;;;6.78;86.26
41573;BME280;27286;47.870;19.006;2023-04-09T07:37:42;100007.22;;;6.87;85.62
41573;BME280;27286;47.870;19.006;2023-04-09T07:40:08;100003.75;;;6.89;86.40
41573;BME280;27286;47.870;19.006;2023-04-09T07:42:36;100014.16;;;6.85;84.47
41573;BME280;27286;47.870;19.006;2023-04-09T07:45:02;100013.25;;;6.87;85.92
41573;BME280;27286;47.870;19.006;2023-04-09T07:47:27;100019.25;;;6.91;85.17
41573;BME280;27286;47.870;19.006;2023-04-09T07:49:53;100019.13;;;6.97;85.90
41573;BME280;27286;47.870;19.006;2023-04-09T07:52:19;100014.78;;;6.99;84.83
41573;BME280;27286;47.870;19.006;2023-04-09T07:54:44;100008.72;;;7.00;84.62
41573;BME280;27286;47.870;19.006;2023-04-09T07:57:10;100010.38;;;7.04;84.69
41573;BME280;27286;47.870;19.006;2023-04-09T07:59:35;100008.50;;;7.12;84.62
41573;BME280;27286;47.870;19.006;2023-04-09T08:02:01;100013.53;;;7.20;84.38
41573;BME280;27286;47.870;19.006;2023-04-09T08:04:26;100006.69;;;7.17;82.98
41573;BME280;27286;47.870;19.006;2023-04-09T08:06:52;100015.22;;;7.24;83.48
41573;BME280;27286;47.870;19.006;2023-04-09T08:09:20;100008.19;;;7.31;82.46
41573;BME280;27286;47.870;19.006;2023-04-09T08:11:47;100006.25;;;7.42;82.65
41573;BME280;27286;47.870;19.006;2023-04-09T08:14:13;100008.56;;;7.54;81.76
41573;BME280;27286;47.870;19.006;2023-04-09T08:16:41;100010.81;;;7.71;81.62
41573;BME280;27286;47.870;19.006;2023-04-09T08:19:07;100004.50;;;7.84;82.58
41573;BME280;27286;47.870;19.006;2023-04-09T08:21:38;100004.97;;;8.03;81.12
41573;BME280;27286;47.870;19.006;2023-04-09T08:24:08;100000.38;;;8.15;81.35
41573;BME280;27286;47.870;19.006;2023-04-09T08:26:35;100007.94;;;8.26;80.64
41573;BME280;27286;47.870;19.006;2023-04-09T08:29:01;100010.47;;;8.28;78.53
41573;BME280;27286;47.870;19.006;2023-04-09T08:31:26;100013.00;;;8.31;77.99
41573;BME280;27286;47.870;19.006;2023-04-09T08:33:52;100007.66;;;8.38;79.38
41573;BME280;27286;47.870;19.006;2023-04-09T08:36:18;100016.28;;;8.40;78.93
41573;BME280;27286;47.870;19.006;2023-04-09T08:38:43;100018.47;;;8.57;79.82
41573;BME280;27286;47.870;19.006;2023-04-09T08:41:19;100015.53;;;8.71;78.46
41573;BME280;27286;47.870;19.006;2023-04-09T08:43:46;100023.91;;;8.82;77.56
41573;BME280;27286;47.870;19.006;2023-04-09T08:46:16;100019.81;;;8.73;75.61
41573;BME280;27286;47.870;19.006;2023-04-09T08:48:46;100028.50;;;8.71;74.00
41573;BME280;27286;47.870;19.006;2023-04-09T08:51:15;100019.06;;;8.68;74.55
41573;BME280;27286;47.870;19.006;2023-04-09T08:53:48;100024.13;;;8.73;75.30
41573;BME280;27286;47.870;19.006;2023-04-09T08:56:18;100026.63;;;8.78;73.76
41573;BME280;27286;47.870;19.006;2023-04-09T08:58:45;100030.97;;;8.77;75.22
41573;BME280;27286;47.870;19.006;2023-04-09T09:04:04;100033.06;;;8.97;72.91
41573;BME280;27286;47.870;19.006;2023-04-09T09:06:40;100034.59;;;9.04;73.76
41573;BME280;27286;47.870;19.006;2023-04-09T09:09:09;100035.03;;;9.21;74.30
41573;BME280;27286;47.870;19.006;2023-04-09T09:11:40;100033.81;;;9.34;72.62
41573;BME280;27286;47.870;19.006;2023-04-09T09:14:08;100038.88;;;9.39;73.42
41573;BME280;27286;47.870;19.006;2023-04-09T09:16:34;100034.63;;;9.37;71.69
41573;BME280;27286;47.870;19.006;2023-04-09T09:19:04;100041.28;;;9.47;70.66
41573;BME280;27286;47.870;19.006;2023-04-09T09:21:30;100043.38;;;9.34;71.44
41573;BME280;27286;47.870;19.006;2023-04-09T09:23:55;100042.56;;;9.32;72.71
41573;BME280;27286;47.870;19.006;2023-04-09T09:26:26;100048.38;;;9.40;70.85
41573;BME280;27286;47.870;19.006;2023-04-09T09:28:53;100047.97;;;9.55;70.71
41573;BME280;27286;47.870;19.006;2023-04-09T09:31:20;100038.38;;;9.59;69.48
41573;BME280;27286;47.870;19.006;2023-04-09T09:33:46;100047.91;;;9.58;69.36
41573;BME280;27286;47.870;19.006;2023-04-09T09:36:13;100042.72;;;9.58;70.29
41573;BME280;27286;47.870;19.006;2023-04-09T09:38:56;100036.78;;;9.53;70.26
41573;BME280;27286;47.870;19.006;2023-04-09T09:41:23;100042.47;;;9.35;71.48
41573;BME280;27286;47.870;19.006;2023-04-09T09:43:49;100045.63;;;9.14;71.23
41573;BME280;27286;47.870;19.006;2023-04-09T09:46:15;100039.13;;;8.97;71.73
41573;BME280;27286;47.870;19.006;2023-04-09T09:48:42;100034.72;;;8.99;72.60
41573;BME280;27286;47.870;19.006;2023-04-09T09:51:09;100039.03;;;9.00;71.04
41573;BME280;27286;47.870;19.006;2023-04-09T09:53:35;100038.94;;;9.03;72.67
41573;BME280;27286;47.870;19.006;2023-04-09T09:56:04;100035.41;;;9.06;72.28
41573;BME280;27286;47.870;19.006;2023-04-09T09:58:39;100036.28;;;9.07;72.52
41573;BME280;27286;47.870;19.006;2023-04-09T10:01:12;100039.41;;;9.19;71.51
41573;BME280;27286;47.870;19.006;2023-04-09T10:03:39;100036.50;;;9.31;71.18
41573;BME280;27286;47.870;19.006;2023-04-09T10:06:08;100035.44;;;9.39;72.33
41573;BME280;27286;47.870;19.006;2023-04-09T10:08:35;100032.78;;;9.40;70.31
41573;BME280;27286;47.870;19.006;2023-04-09T10:11:04;100026.47;;;9.50;69.74
41573;BME280;27286;47.870;19.006;2023-04-09T10:13:36;100029.28;;;9.43;70.13
41573;BME280;27286;47.870;19.006;2023-04-09T10:16:03;100028.53;;;9.38;70.88
41573;BME280;27286;47.870;19.006;2023-04-09T10:18:29;100033.09;;;9.29;69.77
41573;BME280;27286;47.870;19.006;2023-04-09T10:21:03;100019.53;;;9.18;69.66
41573;BME280;27286;47.870;19.006;2023-04-09T10:23:39;100023.19;;;9.11;72.72
41573;BME280;27286;47.870;19.006;2023-04-09T10:26:06;100026.63;;;9.12;73.12
41573;BME280;27286;47.870;19.006;2023-04-09T10:28:33;100028.97;;;9.21;73.49
41573;BME280;27286;47.870;19.006;2023-04-09T10:30:58;100026.25;;;9.27;73.50
41573;BME280;27286;47.870;19.006;2023-04-09T10:33:25;100030.38;;;9.34;73.10
41573;BME280;27286;47.870;19.006;2023-04-09T10:36:02;100027.53;;;9.43;71.96
41573;BME280;27286;47.870;19.006;2023-04-09T10:41:14;100018.44;;;9.59;69.07
41573;BME280;27286;47.870;19.006;2023-04-09T10:43:41;100021.88;;;9.91;69.47
41573;BME280;27286;47.870;19.006;2023-04-09T10:46:24;100021.16;;;10.14;68.68
41573;BME280;27286;47.870;19.006;2023-04-09T10:49:13;100024.03;;;10.34;66.48
41573;BME280;27286;47.870;19.006;2023-04-09T10:51:40;100018.78;;;10.36;66.72
41573;BME280;27286;47.870;19.006;2023-04-09T10:59:35;100021.72;;;10.53;65.62
41573;BME280;27286;47.870;19.006;2023-04-09T11:02:01;100022.50;;;10.55;65.24
41573;BME280;27286;47.870;19.006;2023-04-09T11:04:39;100026.75;;;10.58;64.81
41573;BME280;27286;47.870;19.006;2023-04-09T11:07:07;100025.38;;;10.47;64.47
41573;BME280;27286;47.870;19.006;2023-04-09T11:09:34;100024.91;;;10.35;64.71
41573;BME280;27286;47.870;19.006;2023-04-09T11:11:59;100021.13;;;10.45;65.50
41573;BME280;27286;47.870;19.006;2023-04-09T11:14:26;100019.13;;;10.79;63.14
41573;BME280;27286;47.870;19.006;2023-04-09T11:16:51;100019.88;;;11.34;63.01
41573;BME280;27286;47.870;19.006;2023-04-09T11:19:18;100021.38;;;11.65;62.05
41573;BME280;27286;47.870;19.006;2023-04-09T11:21:44;100011.78;;;11.90;62.66
41573;BME280;27286;47.870;19.006;2023-04-09T11:24:14;100015.41;;;12.10;64.05
41573;BME280;27286;47.870;19.006;2023-04-09T11:26:40;100008.19;;;12.38;59.43
41573;BME280;27286;47.870;19.006;2023-04-09T11:29:08;100012.75;;;12.33;58.12
41573;BME280;27286;47.870;19.006;2023-04-09T11:31:34;100013.84;;;12.27;57.20
41573;BME280;27286;47.870;19.006;2023-04-09T11:34:01;100014.03;;;12.45;59.20
41573;BME280;27286;47.870;19.006;2023-04-09T11:36:26;100011.75;;;12.57;59.67
41573;BME280;27286;47.870;19.006;2023-04-09T11:38:53;100013.47;;;12.58;59.49
41573;BME280;27286;47.870;19.006;2023-04-09T11:41:35;100015.72;;;12.46;57.48
41573;BME280;27286;47.870;19.006;2023-04-09T11:44:04;100005.81;;;12.10;57.45
41573;BME280;27286;47.870;19.006;2023-04-09T11:46:34;100012.91;;;11.83;59.10
41573;BME280;27286;47.870;19.006;2023-04-09T11:49:00;100011.06;;;11.62;61.72
41573;BME280;27286;47.870;19.006;2023-04-09T11:51:27;100016.28;;;11.37;62.83
41573;BME280;27286;47.870;19.006;2023-04-09T11:53:54;100023.84;;;11.20;63.32
41573;BME280;27286;47.870;19.006;2023-04-09T11:56:20;100016.66;;;11.01;64.42
41573;BME280;27286;47.870;19.006;2023-04-09T11:58:47;100021.47;;;10.87;64.32
41573;BME280;27286;47.870;19.006;2023-04-09T12:01:13;100016.72;;;10.73;63.55
41573;BME280;27286;47.870;19.006;2023-04-09T12:03:38;100014.84;;;10.78;63.40
41573;BME280;27286;47.870;19.006;2023-04-09T12:06:05;100022.22;;;10.64;62.05
41573;BME280;27286;47.870;19.006;2023-04-09T12:08:33;100012.47;;;10.71;62.11
41573;BME280;27286;47.870;19.006;2023-04-09T12:11:14;100013.03;;;10.80;63.16
41573;BME280;27286;47.870;19.006;2023-04-09T12:13:40;100014.41;;;10.91;63.96
41573;BME280;27286;47.870;19.006;2023-04-09T12:16:09;100015.00;;;11.24;63.91
41573;BME280;27286;47.870;19.006;2023-04-09T12:18:35;100014.53;;;11.62;61.78
41573;BME280;27286;47.870;19.006;2023-04-09T12:21:02;100013.47;;;11.91;63.38
41573;BME280;27286;47.870;19.006;2023-04-09T12:23:27;100009.22;;;12.34;60.09
41573;BME280;27286;47.870;19.006;2023-04-09T12:25:52;100002.69;;;13.08;58.47
41573;BME280;27286;47.870;19.006;2023-04-09T12:28:19;100002.19;;;13.80;56.51
41573;BME280;27286;47.870;19.006;2023-04-09T12:30:45;99993.84;;;14.47;53.43
41573;BME280;27286;47.870;19.006;2023-04-09T12:33:12;99998.88;;;14.86;54.03
41573;BME280;27286;47.870;19.006;2023-04-09T12:35:37;99989.41;;;15.51;50.26
41573;BME280;27286;47.870;19.006;2023-04-09T12:38:03;99992.22;;;15.81;50.74
41573;BME280;27286;47.870;19.006;2023-04-09T12:40:29;99989.28;;;16.03;47.69
41573;BME280;27286;47.870;19.006;2023-04-09T12:42:54;99982.50;;;16.31;45.21
41573;BME280;27286;47.870;19.006;2023-04-09T12:45:20;99978.47;;;16.55;48.63
41573;BME280;27286;47.870;19.006;2023-04-09T12:47:46;99978.31;;;16.27;45.62
41573;BME280;27286;47.870;19.006;2023-04-09T12:50:13;99981.38;;;16.35;47.49
41573;BME280;27286;47.870;19.006;2023-04-09T12:52:39;99977.56;;;16.40;46.52
41573;BME280;27286;47.870;19.006;2023-04-09T12:55:05;99974.41;;;16.49;46.90
41573;BME280;27286;47.870;19.006;2023-04-09T12:57:31;99967.69;;;16.30;46.18
41573;BME280;27286;47.870;19.006;2023-04-09T12:59:57;99969.09;;;16.19;48.49
41573;BME280;27286;47.870;19.006;2023-04-09T13:02:23;99972.59;;;16.04;45.24